sensor_id;sensor_type;location;lat;lon;timestamp;P1;durP1;ratioP1;P2;durP2;ratioP2
71187;SDS011;58893;53.130;8.158;2022-09-12T00:00:37;4.10;;;2.43;;
71187;SDS011;58893;53.130;8.158;2022-09-12T00:03:03;4.80;;;3.40;;
71187;SDS011;58893;53.130;8.158;2022-09-12T00:05:28;5.27;;;4.40;;
71187;SDS011;58893;53.130;8.158;2022-09-12T00:07:55;7.90;;;3.00;;
71187;SDS011;58893;53.130;8.158;2022-09-12T00:10:20;4.80;;;3.30;;
71187;SDS011;58893;53.130;8.158;2022-09-12T00:12:46;12.43;;;3.73;;
71187;SDS011;58893;53.130;8.158;2022-09-12T00:15:12;5.10;;;3.80;;
71187;SDS011;58893;53.130;8.158;2022-09-12T00:17:37;7.13;;;3.27;;
71187;SDS011;58893;53.130;8.158;2022-09-12T00:20:04;3.63;;;2.70;;
71187;SDS011;58893;53.130;8.158;2022-09-12T00:22:32;4.10;;;2.80;;
71187;SDS011;58893;53.130;8.158;2022-09-12T00:24:57;7.77;;;3.70;;
71187;SDS011;58893;53.130;8.158;2022-09-12T00:27:23;6.47;;;4.50;;
71187;SDS011;58893;53.130;8.158;2022-09-12T00:29:49;4.60;;;2.97;;
71187;SDS011;58893;53.130;8.158;2022-09-12T00:32:14;4.90;;;3.33;;
71187;SDS011;58893;53.130;8.158;2022-09-12T00:34:40;5.57;;;3.50;;
71187;SDS011;58893;53.130;8.158;2022-09-12T00:37:05;5.30;;;4.10;;
71187;SDS011;58893;53.130;8.158;2022-09-12T00:39:31;9.63;;;4.57;;
71187;SDS011;58893;53.130;8.158;2022-09-12T00:41:57;7.80;;;5.03;;
71187;SDS011;58893;53.130;8.158;2022-09-12T00:49:24;8.03;;;4.83;;
71187;SDS011;58893;53.130;8.158;2022-09-12T00:52:03;5.33;;;4.00;;
71187;SDS011;58893;53.130;8.158;2022-09-12T00:54:42;5.07;;;3.27;;
71187;SDS011;58893;53.130;8.158;2022-09-12T00:57:41;5.73;;;3.77;;
71187;SDS011;58893;53.130;8.158;2022-09-12T01:00:14;6.53;;;4.10;;
71187;SDS011;58893;53.130;8.158;2022-09-12T01:02:44;5.70;;;3.30;;
71187;SDS011;58893;53.130;8.158;2022-09-12T01:05:13;10.77;;;4.70;;
71187;SDS011;58893;53.130;8.158;2022-09-12T01:07:39;6.30;;;3.80;;
71187;SDS011;58893;53.130;8.158;2022-09-12T01:10:07;4.67;;;3.50;;
71187;SDS011;58893;53.130;8.158;2022-09-12T01:12:33;5.30;;;3.50;;
71187;SDS011;58893;53.130;8.158;2022-09-12T01:15:04;5.20;;;3.50;;
71187;SDS011;58893;53.130;8.158;2022-09-12T01:17:32;4.40;;;3.30;;
71187;SDS011;58893;53.130;8.158;2022-09-12T01:22:59;5.70;;;3.77;;
71187;SDS011;58893;53.130;8.158;2022-09-12T01:30:44;7.30;;;4.50;;
71187;SDS011;58893;53.130;8.158;2022-09-12T01:33:38;5.93;;;3.57;;
71187;SDS011;58893;53.130;8.158;2022-09-12T01:39:37;3.90;;;3.13;;
71187;SDS011;58893;53.130;8.158;2022-09-12T01:44:53;4.30;;;2.83;;
71187;SDS011;58893;53.130;8.158;2022-09-12T01:47:38;5.43;;;3.10;;
71187;SDS011;58893;53.130;8.158;2022-09-12T01:50:07;5.53;;;3.13;;
71187;SDS011;58893;53.130;8.158;2022-09-12T01:52:43;3.73;;;2.97;;
71187;SDS011;58893;53.130;8.158;2022-09-12T01:55:46;6.30;;;2.90;;
71187;SDS011;58893;53.130;8.158;2022-09-12T01:58:29;4.70;;;3.20;;
71187;SDS011;58893;53.130;8.158;2022-09-12T02:01:07;11.13;;;4.10;;
71187;SDS011;58893;53.130;8.158;2022-09-12T02:03:42;7.70;;;3.80;;
71187;SDS011;58893;53.130;8.158;2022-09-12T02:06:15;7.10;;;4.10;;
71187;SDS011;58893;53.130;8.158;2022-09-12T02:08:55;4.93;;;3.60;;
71187;SDS011;58893;53.130;8.158;2022-09-12T02:11:25;5.47;;;3.53;;
71187;SDS011;58893;53.130;8.158;2022-09-12T02:14:00;5.33;;;3.30;;
71187;SDS011;58893;53.130;8.158;2022-09-12T02:16:34;4.77;;;3.00;;
71187;SDS011;58893;53.130;8.158;2022-09-12T02:19:15;6.93;;;3.40;;
71187;SDS011;58893;53.130;8.158;2022-09-12T02:21:45;5.63;;;3.37;;
71187;SDS011;58893;53.130;8.158;2022-09-12T02:24:16;15.60;;;3.77;;
71187;SDS011;58893;53.130;8.158;2022-09-12T02:27:03;5.33;;;3.67;;
71187;SDS011;58893;53.130;8.158;2022-09-12T02:29:30;4.47;;;3.13;;
71187;SDS011;58893;53.130;8.158;2022-09-12T02:31:56;4.93;;;3.60;;
71187;SDS011;58893;53.130;8.158;2022-09-12T02:39:31;4.40;;;3.30;;
71187;SDS011;58893;53.130;8.158;2022-09-12T02:41:57;6.50;;;3.83;;
71187;SDS011;58893;53.130;8.158;2022-09-12T02:44:25;5.20;;;3.47;;
71187;SDS011;58893;53.130;8.158;2022-09-12T02:46:53;6.13;;;4.70;;
71187;SDS011;58893;53.130;8.158;2022-09-12T02:49:23;5.70;;;4.10;;
71187;SDS011;58893;53.130;8.158;2022-09-12T02:51:49;6.00;;;4.30;;
71187;SDS011;58893;53.130;8.158;2022-09-12T02:54:15;9.90;;;4.30;;
71187;SDS011;58893;53.130;8.158;2022-09-12T02:56:42;6.90;;;4.23;;
71187;SDS011;58893;53.130;8.158;2022-09-12T02:59:10;8.70;;;4.47;;
71187;SDS011;58893;53.130;8.158;2022-09-12T03:01:44;13.23;;;4.40;;
71187;SDS011;58893;53.130;8.158;2022-09-12T03:04:36;4.20;;;3.17;;
71187;SDS011;58893;53.130;8.158;2022-09-12T03:07:17;4.00;;;2.80;;
71187;SDS011;58893;53.130;8.158;2022-09-12T03:12:52;4.67;;;3.50;;
71187;SDS011;58893;53.130;8.158;2022-09-12T03:23:32;7.50;;;3.50;;
71187;SDS011;58893;53.130;8.158;2022-09-12T03:26:11;4.90;;;3.73;;
71187;SDS011;58893;53.130;8.158;2022-09-12T03:28:44;10.97;;;3.53;;
71187;SDS011;58893;53.130;8.158;2022-09-12T03:31:13;5.13;;;3.50;;
71187;SDS011;58893;53.130;8.158;2022-09-12T03:33:40;6.37;;;3.97;;
71187;SDS011;58893;53.130;8.158;2022-09-12T03:36:05;7.00;;;4.30;;
71187;SDS011;58893;53.130;8.158;2022-09-12T03:38:38;7.07;;;4.70;;
71187;SDS011;58893;53.130;8.158;2022-09-12T03:41:04;6.30;;;4.20;;
71187;SDS011;58893;53.130;8.158;2022-09-12T03:43:29;6.97;;;3.60;;
71187;SDS011;58893;53.130;8.158;2022-09-12T03:45:55;5.47;;;3.70;;
71187;SDS011;58893;53.130;8.158;2022-09-12T03:48:20;7.20;;;3.73;;
71187;SDS011;58893;53.130;8.158;2022-09-12T03:50:46;5.60;;;3.93;;
71187;SDS011;58893;53.130;8.158;2022-09-12T03:53:11;5.10;;;3.07;;
71187;SDS011;58893;53.130;8.158;2022-09-12T03:55:37;4.60;;;3.43;;
71187;SDS011;58893;53.130;8.158;2022-09-12T03:58:03;6.53;;;3.20;;
71187;SDS011;58893;53.130;8.158;2022-09-12T04:00:29;3.57;;;3.03;;
71187;SDS011;58893;53.130;8.158;2022-09-12T04:02:57;4.37;;;3.40;;
71187;SDS011;58893;53.130;8.158;2022-09-12T04:05:23;5.07;;;4.00;;
71187;SDS011;58893;53.130;8.158;2022-09-12T04:07:49;4.90;;;3.20;;
71187;SDS011;58893;53.130;8.158;2022-09-12T04:10:15;5.43;;;3.23;;
71187;SDS011;58893;53.130;8.158;2022-09-12T04:12:41;5.50;;;3.80;;
71187;SDS011;58893;53.130;8.158;2022-09-12T04:15:07;6.60;;;3.93;;
71187;SDS011;58893;53.130;8.158;2022-09-12T04:17:33;4.80;;;3.50;;
71187;SDS011;58893;53.130;8.158;2022-09-12T04:19:59;7.63;;;5.13;;
71187;SDS011;58893;53.130;8.158;2022-09-12T04:22:24;8.83;;;4.47;;
71187;SDS011;58893;53.130;8.158;2022-09-12T04:24:50;7.30;;;4.27;;
71187;SDS011;58893;53.130;8.158;2022-09-12T04:27:16;4.90;;;4.00;;
71187;SDS011;58893;53.130;8.158;2022-09-12T04:29:41;7.20;;;3.87;;
71187;SDS011;58893;53.130;8.158;2022-09-12T04:32:07;5.87;;;3.97;;
71187;SDS011;58893;53.130;8.158;2022-09-12T04:34:33;16.57;;;4.63;;
71187;SDS011;58893;53.130;8.158;2022-09-12T04:36:59;9.60;;;3.77;;
71187;SDS011;58893;53.130;8.158;2022-09-12T04:39:24;4.90;;;3.13;;
71187;SDS011;58893;53.130;8.158;2022-09-12T04:41:50;5.83;;;3.93;;
71187;SDS011;58893;53.130;8.158;2022-09-12T04:44:16;5.37;;;3.17;;
71187;SDS011;58893;53.130;8.158;2022-09-12T04:46:43;3.97;;;2.73;;
71187;SDS011;58893;53.130;8.158;2022-09-12T04:49:11;5.13;;;3.40;;
71187;SDS011;58893;53.130;8.158;2022-09-12T04:51:39;3.67;;;3.00;;
71187;SDS011;58893;53.130;8.158;2022-09-12T04:54:15;6.60;;;4.43;;
71187;SDS011;58893;53.130;8.158;2022-09-12T04:56:43;7.10;;;4.63;;
71187;SDS011;58893;53.130;8.158;2022-09-12T04:59:11;9.97;;;5.73;;
71187;SDS011;58893;53.130;8.158;2022-09-12T05:01:38;8.80;;;4.07;;
71187;SDS011;58893;53.130;8.158;2022-09-12T05:04:04;7.63;;;3.47;;
71187;SDS011;58893;53.130;8.158;2022-09-12T05:06:31;6.37;;;4.00;;
71187;SDS011;58893;53.130;8.158;2022-09-12T05:08:59;7.00;;;3.80;;
71187;SDS011;58893;53.130;8.158;2022-09-12T05:11:26;6.17;;;4.40;;
71187;SDS011;58893;53.130;8.158;2022-09-12T05:13:53;4.57;;;3.23;;
71187;SDS011;58893;53.130;8.158;2022-09-12T05:16:20;7.43;;;4.40;;
71187;SDS011;58893;53.130;8.158;2022-09-12T05:18:46;4.90;;;3.60;;
71187;SDS011;58893;53.130;8.158;2022-09-12T05:21:14;4.40;;;3.73;;
71187;SDS011;58893;53.130;8.158;2022-09-12T05:23:41;6.30;;;4.43;;
71187;SDS011;58893;53.130;8.158;2022-09-12T05:26:07;9.00;;;4.20;;
71187;SDS011;58893;53.130;8.158;2022-09-12T05:28:36;8.33;;;4.90;;
71187;SDS011;58893;53.130;8.158;2022-09-12T05:31:16;8.20;;;4.77;;
71187;SDS011;58893;53.130;8.158;2022-09-12T05:33:47;6.33;;;4.37;;
71187;SDS011;58893;53.130;8.158;2022-09-12T05:36:18;6.20;;;4.60;;
71187;SDS011;58893;53.130;8.158;2022-09-12T05:38:54;11.37;;;4.83;;
71187;SDS011;58893;53.130;8.158;2022-09-12T05:41:24;11.50;;;5.20;;
71187;SDS011;58893;53.130;8.158;2022-09-12T05:43:52;16.90;;;4.43;;
71187;SDS011;58893;53.130;8.158;2022-09-12T05:46:19;6.93;;;4.83;;
71187;SDS011;58893;53.130;8.158;2022-09-12T05:48:47;15.47;;;6.80;;
71187;SDS011;58893;53.130;8.158;2022-09-12T05:51:18;15.13;;;7.40;;
71187;SDS011;58893;53.130;8.158;2022-09-12T05:53:51;14.47;;;6.83;;
71187;SDS011;58893;53.130;8.158;2022-09-12T05:56:18;19.20;;;7.90;;
71187;SDS011;58893;53.130;8.158;2022-09-12T05:58:47;18.80;;;5.67;;
71187;SDS011;58893;53.130;8.158;2022-09-12T06:01:24;8.67;;;5.70;;
71187;SDS011;58893;53.130;8.158;2022-09-12T06:03:52;12.03;;;7.50;;
71187;SDS011;58893;53.130;8.158;2022-09-12T06:06:19;18.70;;;6.67;;
71187;SDS011;58893;53.130;8.158;2022-09-12T06:08:47;10.20;;;5.80;;
71187;SDS011;58893;53.130;8.158;2022-09-12T06:11:16;9.77;;;5.97;;
71187;SDS011;58893;53.130;8.158;2022-09-12T06:13:43;8.63;;;6.70;;
71187;SDS011;58893;53.130;8.158;2022-09-12T06:16:09;11.40;;;7.43;;
71187;SDS011;58893;53.130;8.158;2022-09-12T06:18:40;10.13;;;6.90;;
71187;SDS011;58893;53.130;8.158;2022-09-12T06:21:09;13.63;;;6.90;;
71187;SDS011;58893;53.130;8.158;2022-09-12T06:23:36;12.43;;;8.33;;
71187;SDS011;58893;53.130;8.158;2022-09-12T06:26:03;18.37;;;9.23;;
71187;SDS011;58893;53.130;8.158;2022-09-12T06:28:31;22.00;;;10.43;;
71187;SDS011;58893;53.130;8.158;2022-09-12T06:31:02;14.70;;;9.33;;
71187;SDS011;58893;53.130;8.158;2022-09-12T06:33:33;20.27;;;10.90;;
71187;SDS011;58893;53.130;8.158;2022-09-12T06:36:01;14.47;;;9.37;;
71187;SDS011;58893;53.130;8.158;2022-09-12T06:38:31;18.40;;;10.90;;
71187;SDS011;58893;53.130;8.158;2022-09-12T06:40:57;22.80;;;11.10;;
71187;SDS011;58893;53.130;8.158;2022-09-12T06:43:24;20.90;;;11.97;;
71187;SDS011;58893;53.130;8.158;2022-09-12T06:45:50;23.60;;;12.90;;
71187;SDS011;58893;53.130;8.158;2022-09-12T06:48:16;25.73;;;12.63;;
71187;SDS011;58893;53.130;8.158;2022-09-12T06:50:41;25.90;;;12.90;;
71187;SDS011;58893;53.130;8.158;2022-09-12T06:53:07;25.47;;;12.67;;
71187;SDS011;58893;53.130;8.158;2022-09-12T06:55:33;28.13;;;12.73;;
71187;SDS011;58893;53.130;8.158;2022-09-12T06:57:59;29.33;;;13.57;;
71187;SDS011;58893;53.130;8.158;2022-09-12T07:00:25;41.10;;;20.97;;
71187;SDS011;58893;53.130;8.158;2022-09-12T07:02:53;36.67;;;17.43;;
71187;SDS011;58893;53.130;8.158;2022-09-12T07:05:20;23.17;;;13.90;;
71187;SDS011;58893;53.130;8.158;2022-09-12T07:07:46;28.60;;;14.60;;
71187;SDS011;58893;53.130;8.158;2022-09-12T07:10:12;36.13;;;15.73;;
71187;SDS011;58893;53.130;8.158;2022-09-12T07:12:38;26.63;;;14.77;;
71187;SDS011;58893;53.130;8.158;2022-09-12T07:15:04;28.23;;;15.23;;
71187;SDS011;58893;53.130;8.158;2022-09-12T07:17:30;25.00;;;13.83;;
71187;SDS011;58893;53.130;8.158;2022-09-12T07:19:55;31.00;;;16.30;;
71187;SDS011;58893;53.130;8.158;2022-09-12T07:22:21;29.53;;;16.20;;
71187;SDS011;58893;53.130;8.158;2022-09-12T07:24:46;28.50;;;14.97;;
71187;SDS011;58893;53.130;8.158;2022-09-12T07:27:12;37.37;;;15.47;;
71187;SDS011;58893;53.130;8.158;2022-09-12T07:29:38;31.23;;;16.40;;
71187;SDS011;58893;53.130;8.158;2022-09-12T07:32:04;31.97;;;16.60;;
71187;SDS011;58893;53.130;8.158;2022-09-12T07:34:30;33.00;;;14.97;;
71187;SDS011;58893;53.130;8.158;2022-09-12T07:36:56;31.97;;;17.20;;
71187;SDS011;58893;53.130;8.158;2022-09-12T07:39:22;30.43;;;16.73;;
71187;SDS011;58893;53.130;8.158;2022-09-12T07:41:48;28.70;;;15.93;;
71187;SDS011;58893;53.130;8.158;2022-09-12T07:44:13;32.07;;;16.80;;
71187;SDS011;58893;53.130;8.158;2022-09-12T07:46:39;29.70;;;15.60;;
71187;SDS011;58893;53.130;8.158;2022-09-12T07:49:05;32.10;;;17.17;;
71187;SDS011;58893;53.130;8.158;2022-09-12T07:51:31;35.10;;;17.83;;
71187;SDS011;58893;53.130;8.158;2022-09-12T07:53:57;41.07;;;19.83;;
71187;SDS011;58893;53.130;8.158;2022-09-12T07:56:23;61.23;;;29.07;;
71187;SDS011;58893;53.130;8.158;2022-09-12T07:58:49;59.63;;;28.50;;
71187;SDS011;58893;53.130;8.158;2022-09-12T08:01:16;40.40;;;21.20;;
71187;SDS011;58893;53.130;8.158;2022-09-12T08:03:47;31.83;;;16.93;;
71187;SDS011;58893;53.130;8.158;2022-09-12T08:06:18;29.60;;;17.03;;
71187;SDS011;58893;53.130;8.158;2022-09-12T08:08:45;35.10;;;17.47;;
71187;SDS011;58893;53.130;8.158;2022-09-12T08:11:12;37.60;;;18.80;;
71187;SDS011;58893;53.130;8.158;2022-09-12T08:13:39;30.57;;;17.47;;
71187;SDS011;58893;53.130;8.158;2022-09-12T08:16:08;34.73;;;17.80;;
71187;SDS011;58893;53.130;8.158;2022-09-12T08:18:37;42.80;;;19.63;;
71187;SDS011;58893;53.130;8.158;2022-09-12T08:21:08;53.10;;;20.27;;
71187;SDS011;58893;53.130;8.158;2022-09-12T08:23:39;41.13;;;18.43;;
71187;SDS011;58893;53.130;8.158;2022-09-12T08:26:05;39.70;;;19.23;;
71187;SDS011;58893;53.130;8.158;2022-09-12T08:28:31;43.33;;;18.80;;
71187;SDS011;58893;53.130;8.158;2022-09-12T08:31:05;36.40;;;18.00;;
71187;SDS011;58893;53.130;8.158;2022-09-12T08:33:32;47.13;;;20.07;;
71187;SDS011;58893;53.130;8.158;2022-09-12T08:36:05;37.47;;;19.30;;
71187;SDS011;58893;53.130;8.158;2022-09-12T08:38:34;41.27;;;18.67;;
71187;SDS011;58893;53.130;8.158;2022-09-12T08:52:06;37.50;;;19.17;;
71187;SDS011;58893;53.130;8.158;2022-09-12T08:54:38;47.60;;;21.90;;
71187;SDS011;58893;53.130;8.158;2022-09-12T08:57:04;42.10;;;20.80;;
71187;SDS011;58893;53.130;8.158;2022-09-12T08:59:37;37.00;;;19.70;;
71187;SDS011;58893;53.130;8.158;2022-09-12T09:05:16;41.63;;;19.60;;
71187;SDS011;58893;53.130;8.158;2022-09-12T09:16:38;39.97;;;17.73;;
71187;SDS011;58893;53.130;8.158;2022-09-12T09:24:20;33.20;;;17.23;;
71187;SDS011;58893;53.130;8.158;2022-09-12T09:29:33;37.80;;;16.40;;
71187;SDS011;58893;53.130;8.158;2022-09-12T09:32:02;26.60;;;15.37;;
71187;SDS011;58893;53.130;8.158;2022-09-12T09:34:37;35.87;;;16.17;;
71187;SDS011;58893;53.130;8.158;2022-09-12T09:37:14;33.93;;;15.87;;
71187;SDS011;58893;53.130;8.158;2022-09-12T09:45:17;35.90;;;16.77;;
71187;SDS011;58893;53.130;8.158;2022-09-12T09:50:26;31.30;;;16.03;;
71187;SDS011;58893;53.130;8.158;2022-09-12T09:52:52;34.90;;;15.77;;
71187;SDS011;58893;53.130;8.158;2022-09-12T09:55:22;42.10;;;16.20;;
71187;SDS011;58893;53.130;8.158;2022-09-12T09:57:52;31.40;;;14.43;;
71187;SDS011;58893;53.130;8.158;2022-09-12T10:03:47;28.63;;;15.53;;
71187;SDS011;58893;53.130;8.158;2022-09-12T10:06:05;33.40;;;13.80;;
71187;SDS011;58893;53.130;8.158;2022-09-12T10:08:51;33.83;;;13.13;;
71187;SDS011;58893;53.130;8.158;2022-09-12T10:11:40;19.93;;;10.93;;
71187;SDS011;58893;53.130;8.158;2022-09-12T10:17:49;22.63;;;11.40;;
71187;SDS011;58893;53.130;8.158;2022-09-12T10:19:57;15.50;;;9.07;;
71187;SDS011;58893;53.130;8.158;2022-09-12T10:22:24;22.60;;;11.13;;
71187;SDS011;58893;53.130;8.158;2022-09-12T10:24:54;17.47;;;10.60;;
71187;SDS011;58893;53.130;8.158;2022-09-12T10:27:26;16.40;;;9.80;;
71187;SDS011;58893;53.130;8.158;2022-09-12T10:30:15;16.17;;;9.13;;
71187;SDS011;58893;53.130;8.158;2022-09-12T10:32:43;20.67;;;10.20;;
71187;SDS011;58893;53.130;8.158;2022-09-12T10:35:19;23.53;;;9.57;;
71187;SDS011;58893;53.130;8.158;2022-09-12T10:37:56;14.40;;;8.03;;
71187;SDS011;58893;53.130;8.158;2022-09-12T10:40:25;13.20;;;8.07;;
71187;SDS011;58893;53.130;8.158;2022-09-12T10:42:59;14.70;;;7.63;;
71187;SDS011;58893;53.130;8.158;2022-09-12T10:45:31;13.40;;;7.80;;
71187;SDS011;58893;53.130;8.158;2022-09-12T10:48:03;16.33;;;7.07;;
71187;SDS011;58893;53.130;8.158;2022-09-12T10:50:45;13.33;;;6.67;;
71187;SDS011;58893;53.130;8.158;2022-09-12T11:15:28;15.37;;;6.47;;
71187;SDS011;58893;53.130;8.158;2022-09-12T11:23:38;12.57;;;6.40;;
71187;SDS011;58893;53.130;8.158;2022-09-12T11:34:43;19.10;;;6.33;;
71187;SDS011;58893;53.130;8.158;2022-09-12T11:40:19;13.97;;;7.50;;
71187;SDS011;58893;53.130;8.158;2022-09-12T11:42:48;14.93;;;7.23;;
71187;SDS011;58893;53.130;8.158;2022-09-12T11:45:38;13.70;;;7.27;;
71187;SDS011;58893;53.130;8.158;2022-09-12T11:48:09;16.80;;;8.50;;
71187;SDS011;58893;53.130;8.158;2022-09-12T11:50:42;14.60;;;7.30;;
71187;SDS011;58893;53.130;8.158;2022-09-12T11:53:13;16.17;;;7.33;;
71187;SDS011;58893;53.130;8.158;2022-09-12T11:58:29;11.80;;;6.70;;
71187;SDS011;58893;53.130;8.158;2022-09-12T12:00:56;15.10;;;7.97;;
71187;SDS011;58893;53.130;8.158;2022-09-12T12:03:34;15.77;;;8.17;;
71187;SDS011;58893;53.130;8.158;2022-09-12T12:06:51;20.90;;;8.20;;
71187;SDS011;58893;53.130;8.158;2022-09-12T12:08:57;21.13;;;9.23;;
71187;SDS011;58893;53.130;8.158;2022-09-12T12:11:25;24.33;;;9.83;;
71187;SDS011;58893;53.130;8.158;2022-09-12T12:13:57;17.10;;;9.13;;
71187;SDS011;58893;53.130;8.158;2022-09-12T12:16:36;16.77;;;8.80;;
71187;SDS011;58893;53.130;8.158;2022-09-12T12:21:42;20.43;;;9.00;;
71187;SDS011;58893;53.130;8.158;2022-09-12T12:29:03;18.57;;;8.70;;
71187;SDS011;58893;53.130;8.158;2022-09-12T12:34:47;25.63;;;10.30;;
71187;SDS011;58893;53.130;8.158;2022-09-12T12:44:56;27.30;;;11.37;;
71187;SDS011;58893;53.130;8.158;2022-09-12T12:47:33;27.53;;;11.00;;
71187;SDS011;58893;53.130;8.158;2022-09-12T12:58:05;11.93;;;6.67;;
71187;SDS011;58893;53.130;8.158;2022-09-12T13:01:11;14.83;;;7.10;;
71187;SDS011;58893;53.130;8.158;2022-09-12T13:03:41;13.80;;;7.37;;
71187;SDS011;58893;53.130;8.158;2022-09-12T13:06:20;14.10;;;7.57;;
71187;SDS011;58893;53.130;8.158;2022-09-12T13:08:56;19.70;;;7.63;;
71187;SDS011;58893;53.130;8.158;2022-09-12T13:11:43;17.50;;;7.70;;
71187;SDS011;58893;53.130;8.158;2022-09-12T13:16:57;17.87;;;6.97;;
71187;SDS011;58893;53.130;8.158;2022-09-12T13:19:26;12.07;;;6.37;;
71187;SDS011;58893;53.130;8.158;2022-09-12T13:22:00;15.77;;;7.30;;
71187;SDS011;58893;53.130;8.158;2022-09-12T13:24:28;19.60;;;7.90;;
71187;SDS011;58893;53.130;8.158;2022-09-12T13:26:54;14.37;;;7.20;;
71187;SDS011;58893;53.130;8.158;2022-09-12T13:29:22;19.63;;;7.47;;
71187;SDS011;58893;53.130;8.158;2022-09-12T13:32:07;18.27;;;6.87;;
71187;SDS011;58893;53.130;8.158;2022-09-12T13:34:34;10.63;;;6.73;;
71187;SDS011;58893;53.130;8.158;2022-09-12T13:47:55;15.87;;;7.73;;
71187;SDS011;58893;53.130;8.158;2022-09-12T13:50:26;14.60;;;7.10;;
71187;SDS011;58893;53.130;8.158;2022-09-12T13:52:56;12.77;;;6.80;;
71187;SDS011;58893;53.130;8.158;2022-09-12T13:55:34;12.80;;;6.60;;
71187;SDS011;58893;53.130;8.158;2022-09-12T13:58:14;13.23;;;7.00;;
71187;SDS011;58893;53.130;8.158;2022-09-12T14:00:43;13.87;;;5.97;;
71187;SDS011;58893;53.130;8.158;2022-09-12T14:03:26;11.73;;;5.60;;
71187;SDS011;58893;53.130;8.158;2022-09-12T14:06:12;15.90;;;6.00;;
71187;SDS011;58893;53.130;8.158;2022-09-12T14:08:40;9.20;;;4.93;;
71187;SDS011;58893;53.130;8.158;2022-09-12T14:11:08;9.80;;;5.60;;
71187;SDS011;58893;53.130;8.158;2022-09-12T14:13:45;11.60;;;5.50;;
71187;SDS011;58893;53.130;8.158;2022-09-12T14:16:10;9.97;;;5.13;;
71187;SDS011;58893;53.130;8.158;2022-09-12T14:18:37;12.10;;;5.17;;
71187;SDS011;58893;53.130;8.158;2022-09-12T14:21:09;11.30;;;5.20;;
71187;SDS011;58893;53.130;8.158;2022-09-12T14:23:40;14.40;;;6.77;;
71187;SDS011;58893;53.130;8.158;2022-09-12T14:26:10;14.40;;;6.10;;
71187;SDS011;58893;53.130;8.158;2022-09-12T14:28:43;11.87;;;5.77;;
71187;SDS011;58893;53.130;8.158;2022-09-12T14:33:48;12.60;;;5.20;;
71187;SDS011;58893;53.130;8.158;2022-09-12T14:39:00;9.97;;;5.50;;
71187;SDS011;58893;53.130;8.158;2022-09-12T14:41:30;10.80;;;5.50;;
71187;SDS011;58893;53.130;8.158;2022-09-12T14:43:59;9.63;;;5.93;;
71187;SDS011;58893;53.130;8.158;2022-09-12T14:46:35;14.70;;;5.40;;
71187;SDS011;58893;53.130;8.158;2022-09-12T14:49:15;11.77;;;6.03;;
71187;SDS011;58893;53.130;8.158;2022-09-12T14:51:58;9.10;;;4.53;;
71187;SDS011;58893;53.130;8.158;2022-09-12T14:56:59;9.70;;;5.27;;
71187;SDS011;58893;53.130;8.158;2022-09-12T15:07:39;11.43;;;5.30;;
71187;SDS011;58893;53.130;8.158;2022-09-12T15:15:33;9.80;;;5.13;;
71187;SDS011;58893;53.130;8.158;2022-09-12T15:17:59;7.30;;;4.90;;
71187;SDS011;58893;53.130;8.158;2022-09-12T15:20:25;8.70;;;5.30;;
71187;SDS011;58893;53.130;8.158;2022-09-12T15:22:50;9.17;;;5.07;;
71187;SDS011;58893;53.130;8.158;2022-09-12T15:25:16;9.63;;;5.20;;
71187;SDS011;58893;53.130;8.158;2022-09-12T15:27:43;9.03;;;4.20;;
71187;SDS011;58893;53.130;8.158;2022-09-12T15:30:11;7.07;;;5.07;;
71187;SDS011;58893;53.130;8.158;2022-09-12T15:32:41;10.93;;;6.27;;
71187;SDS011;58893;53.130;8.158;2022-09-12T15:35:15;7.83;;;5.30;;
71187;SDS011;58893;53.130;8.158;2022-09-12T15:37:49;11.77;;;6.07;;
71187;SDS011;58893;53.130;8.158;2022-09-12T15:40:16;9.27;;;5.70;;
71187;SDS011;58893;53.130;8.158;2022-09-12T15:42:42;9.07;;;5.03;;
71187;SDS011;58893;53.130;8.158;2022-09-12T15:45:15;9.40;;;4.90;;
71187;SDS011;58893;53.130;8.158;2022-09-12T15:47:44;10.03;;;4.67;;
71187;SDS011;58893;53.130;8.158;2022-09-12T15:50:09;9.40;;;4.83;;
71187;SDS011;58893;53.130;8.158;2022-09-12T15:52:35;11.07;;;5.10;;
71187;SDS011;58893;53.130;8.158;2022-09-12T15:55:01;12.30;;;4.70;;
71187;SDS011;58893;53.130;8.158;2022-09-12T15:57:28;7.00;;;4.57;;
71187;SDS011;58893;53.130;8.158;2022-09-12T15:59:54;7.60;;;4.50;;
71187;SDS011;58893;53.130;8.158;2022-09-12T16:02:19;6.33;;;4.60;;
71187;SDS011;58893;53.130;8.158;2022-09-12T16:04:45;7.20;;;3.80;;
71187;SDS011;58893;53.130;8.158;2022-09-12T16:07:12;8.20;;;4.10;;
71187;SDS011;58893;53.130;8.158;2022-09-12T16:09:38;6.40;;;4.33;;
71187;SDS011;58893;53.130;8.158;2022-09-12T16:12:03;5.57;;;3.80;;
71187;SDS011;58893;53.130;8.158;2022-09-12T16:14:29;4.10;;;3.03;;
71187;SDS011;58893;53.130;8.158;2022-09-12T16:16:55;6.87;;;4.13;;
71187;SDS011;58893;53.130;8.158;2022-09-12T16:19:21;5.93;;;4.40;;
71187;SDS011;58893;53.130;8.158;2022-09-12T16:21:46;5.00;;;3.50;;
71187;SDS011;58893;53.130;8.158;2022-09-12T16:24:12;4.27;;;2.93;;
71187;SDS011;58893;53.130;8.158;2022-09-12T16:26:38;9.77;;;4.47;;
71187;SDS011;58893;53.130;8.158;2022-09-12T16:29:03;6.33;;;3.90;;
71187;SDS011;58893;53.130;8.158;2022-09-12T16:31:29;4.70;;;3.67;;
71187;SDS011;58893;53.130;8.158;2022-09-12T16:33:55;12.80;;;3.77;;
71187;SDS011;58893;53.130;8.158;2022-09-12T16:36:21;5.63;;;3.73;;
71187;SDS011;58893;53.130;8.158;2022-09-12T16:38:48;10.33;;;4.67;;
71187;SDS011;58893;53.130;8.158;2022-09-12T16:41:15;6.60;;;4.20;;
71187;SDS011;58893;53.130;8.158;2022-09-12T16:43:42;5.30;;;3.77;;
71187;SDS011;58893;53.130;8.158;2022-09-12T16:46:09;10.13;;;3.37;;
71187;SDS011;58893;53.130;8.158;2022-09-12T16:48:46;7.10;;;3.67;;
71187;SDS011;58893;53.130;8.158;2022-09-12T16:51:13;4.67;;;3.63;;
71187;SDS011;58893;53.130;8.158;2022-09-12T16:53:40;5.73;;;4.07;;
71187;SDS011;58893;53.130;8.158;2022-09-12T16:56:06;9.17;;;3.87;;
71187;SDS011;58893;53.130;8.158;2022-09-12T16:58:33;4.97;;;3.37;;
71187;SDS011;58893;53.130;8.158;2022-09-12T17:01:01;4.80;;;3.77;;
71187;SDS011;58893;53.130;8.158;2022-09-12T17:03:29;10.97;;;3.50;;
71187;SDS011;58893;53.130;8.158;2022-09-12T17:06:02;5.30;;;3.97;;
71187;SDS011;58893;53.130;8.158;2022-09-12T17:08:39;6.33;;;4.43;;
71187;SDS011;58893;53.130;8.158;2022-09-12T17:11:11;8.13;;;4.10;;
71187;SDS011;58893;53.130;8.158;2022-09-12T17:13:45;7.63;;;4.40;;
71187;SDS011;58893;53.130;8.158;2022-09-12T17:16:15;9.23;;;3.57;;
71187;SDS011;58893;53.130;8.158;2022-09-12T17:18:41;8.40;;;3.27;;
71187;SDS011;58893;53.130;8.158;2022-09-12T17:21:07;6.17;;;3.47;;
71187;SDS011;58893;53.130;8.158;2022-09-12T17:23:33;5.90;;;3.83;;
71187;SDS011;58893;53.130;8.158;2022-09-12T17:26:00;6.53;;;3.60;;
71187;SDS011;58893;53.130;8.158;2022-09-12T17:28:25;10.50;;;4.60;;
71187;SDS011;58893;53.130;8.158;2022-09-12T17:30:58;5.53;;;3.50;;
71187;SDS011;58893;53.130;8.158;2022-09-12T17:33:25;5.17;;;3.60;;
71187;SDS011;58893;53.130;8.158;2022-09-12T17:35:51;7.43;;;3.77;;
71187;SDS011;58893;53.130;8.158;2022-09-12T17:38:17;6.37;;;4.00;;
71187;SDS011;58893;53.130;8.158;2022-09-12T17:40:43;5.03;;;4.10;;
71187;SDS011;58893;53.130;8.158;2022-09-12T17:43:12;4.20;;;3.63;;
71187;SDS011;58893;53.130;8.158;2022-09-12T17:45:39;5.80;;;4.20;;
71187;SDS011;58893;53.130;8.158;2022-09-12T17:48:06;6.00;;;3.90;;
71187;SDS011;58893;53.130;8.158;2022-09-12T17:50:35;6.10;;;3.93;;
71187;SDS011;58893;53.130;8.158;2022-09-12T17:53:04;13.30;;;4.00;;
71187;SDS011;58893;53.130;8.158;2022-09-12T17:55:34;5.90;;;3.70;;
71187;SDS011;58893;53.130;8.158;2022-09-12T17:58:01;11.90;;;3.43;;